Time;durP1;ratioP1;P1;durP2;ratioP2;P2;SDS_P1;SDS_P2;PMS_P1;PMS_P2;Temp;Humidity;BMP_temperature;BMP_pressure;BME280_temperature;BME280_humidity;BME280_pressure;Samples;Min_cycle;Max_cycle;Signal;HPM_P1;HPM_P2
2023/11/02 00:00:34;;;;;;;0.10;0.10;;;;;;;11.51;67.98;101010.34;4989798;28;20030;-86
2023/11/02 00:03:02;;;;;;;0.10;0.10;;;;;;;11.41;68.26;100991.78;4989686;28;20035;-87
2023/11/02 00:05:53;;;;;;;0.10;0.10;;;;;;;11.43;68.51;101012.44;4989926;28;20050;-86
2023/11/02 00:08:19;;;;;;;0.20;0.20;;;;;;;11.44;68.52;101007.19;4974281;28;20031;-87
2023/11/02 00:10:45;;;;;;;0.20;0.20;;;;;;;11.27;69.59;101006.28;4989903;28;20031;-87
2023/11/02 00:13:19;;;;;;;0.17;0.17;;;;;;;11.23;69.23;101009.91;4973318;28;20096;-88
2023/11/02 00:15:45;;;;;;;0.10;0.10;;;;;;;11.24;69.09;101020.22;4989227;28;20054;-86
2023/11/02 00:18:10;;;;;;;0.20;0.20;;;;;;;11.11;69.48;101004.38;4989605;28;20039;-86
2023/11/02 00:20:37;;;;;;;0.10;0.10;;;;;;;10.83;69.71;100970.28;4989054;28;20053;-86
2023/11/02 00:23:03;;;;;;;0.10;0.10;;;;;;;11.01;69.91;100997.06;4989146;28;20038;-87
2023/11/02 00:25:53;;;;;;;0.20;0.20;;;;;;;11.00;69.86;100983.28;4989058;28;20030;-87
2023/11/02 00:28:19;;;;;;;0.10;0.10;;;;;;;10.76;70.47;100955.94;4988729;28;20440;-86
2023/11/02 00:30:46;;;;;;;0.20;0.20;;;;;;;10.99;69.96;100979.03;4973001;28;20039;-87
2023/11/02 00:33:15;;;;;;;0.10;0.10;;;;;;;10.93;70.76;100966.38;4989091;28;20034;-88
2023/11/02 00:35:48;;;;;;;0.10;0.10;;;;;;;10.81;70.89;100961.72;4989250;28;20408;-87
2023/11/02 00:38:18;;;;;;;0.20;0.20;;;;;;;10.80;70.57;100957.47;4972591;28;20401;-87
2023/11/02 00:40:43;;;;;;;0.20;0.20;;;;;;;10.84;70.86;100974.56;4972744;28;20031;-87
2023/11/02 00:43:09;;;;;;;0.10;0.10;;;;;;;10.69;71.04;100959.69;4972821;28;20077;-87
2023/11/02 00:45:37;;;;;;;0.10;0.10;;;;;;;10.77;71.48;100962.78;4972629;28;20035;-87
2023/11/02 00:48:03;;;;;;;0.20;0.20;;;;;;;10.91;70.93;100961.28;4988919;28;20504;-87
2023/11/02 00:50:44;;;;;;;0.10;0.10;;;;;;;11.05;70.89;100959.81;4972637;28;20031;-87
2023/11/02 00:53:11;;;;;;;0.10;0.10;;;;;;;10.94;70.86;100943.91;4988709;28;20027;-86
2023/11/02 00:55:36;;;;;;;0.10;0.10;;;;;;;11.00;70.78;100965.16;4988546;28;20041;-87
2023/11/02 00:58:08;;;;;;;0.20;0.20;;;;;;;11.03;71.00;100974.56;4989101;28;20038;-86
2023/11/02 01:00:54;;;;;;;0.10;0.10;;;;;;;10.98;70.74;100976.50;4972612;28;20038;-87
2023/11/02 01:03:24;;;;;;;0.20;0.20;;;;;;;11.00;70.99;100972.94;4988564;28;20543;-87
2023/11/02 01:05:49;;;;;;;0.20;0.20;;;;;;;10.94;71.37;100975.81;4988452;28;20117;-86
2023/11/02 01:08:15;;;;;;;0.20;0.20;;;;;;;11.05;71.24;100972.75;4988040;28;20472;-87
2023/11/02 01:10:41;;;;;;;0.20;0.20;;;;;;;11.07;70.71;100969.16;4988849;28;20070;-86
2023/11/02 01:13:12;;;;;;;0.20;0.20;;;;;;;11.03;71.21;100964.22;4988316;28;20027;-88
2023/11/02 01:15:44;;;;;;;0.20;0.20;;;;;;;11.02;71.45;100968.56;4988057;28;20534;-86
2023/11/02 01:18:10;;;;;;;0.10;0.10;;;;;;;10.93;71.74;100963.78;4973149;28;20105;-87
2023/11/02 01:20:39;;;;;;;0.10;0.10;;;;;;;11.14;71.24;100986.13;4971931;28;20027;-86
2023/11/02 01:23:13;;;;;;;0.10;0.10;;;;;;;11.12;71.04;100984.50;4988273;28;20118;-87
2023/11/02 01:25:44;;;;;;;0.10;0.10;;;;;;;11.12;72.24;100982.75;4971882;28;20035;-89
2023/11/02 01:28:15;;;;;;;0.10;0.10;;;;;;;11.14;71.45;100982.69;4987908;28;20034;-87
2023/11/02 01:30:40;;;;;;;0.13;0.13;;;;;;;11.18;71.15;100979.88;4988110;28;20022;-86
2023/11/02 01:33:33;;;;;;;0.10;0.10;;;;;;;11.22;70.89;100964.22;4988035;28;20523;-87
2023/11/02 01:35:59;;;;;;;0.10;0.10;;;;;;;11.17;71.06;100969.59;4972782;28;20046;-87
2023/11/02 01:38:24;;;;;;;0.20;0.20;;;;;;;11.02;71.14;100957.38;4987996;28;20027;-88
2023/11/02 01:40:51;;;;;;;0.20;0.20;;;;;;;10.81;70.88;100920.31;4987967;28;20034;-87
2023/11/02 01:43:26;;;;;;;0.20;0.20;;;;;;;11.05;70.99;100952.88;4971399;28;20031;-88
2023/11/02 01:45:53;;;;;;;0.20;0.20;;;;;;;11.07;71.55;100964.00;4987478;28;20504;-87
2023/11/02 01:48:18;;;;;;;0.20;0.20;;;;;;;11.08;71.47;100947.53;4971600;28;20496;-86
2023/11/02 01:50:44;;;;;;;0.20;0.20;;;;;;;11.16;71.37;100952.38;4971284;28;20133;-88
2023/11/02 01:53:31;;;;;;;0.20;0.20;;;;;;;11.05;70.92;100921.81;4972789;28;20138;-86
2023/11/02 01:56:16;;;;;;;0.20;0.20;;;;;;;11.09;70.99;100920.75;4971393;28;20526;-87
2023/11/02 01:59:19;;;;;;;0.20;0.20;;;;;;;11.12;71.87;100949.09;4971380;28;20031;-87
2023/11/02 02:01:54;;;;;;;0.10;0.10;;;;;;;11.09;72.03;100938.88;4987502;28;20035;-86
2023/11/02 02:04:36;;;;;;;0.10;0.10;;;;;;;11.08;72.37;100933.75;4987239;28;20038;-87
2023/11/02 02:07:16;;;;;;;0.20;0.20;;;;;;;11.19;71.84;100924.59;4987596;28;20023;-87
2023/11/02 02:10:07;;;;;;;0.20;0.20;;;;;;;11.11;71.98;100926.72;4987633;28;20034;-86
2023/11/02 02:12:33;;;;;;;0.10;0.10;;;;;;;11.22;71.80;100940.91;4986916;28;20110;-86
2023/11/02 02:15:03;;;;;;;0.20;0.20;;;;;;;11.22;71.81;100928.81;4971985;28;20141;-87
2023/11/02 02:17:37;;;;;;;0.20;0.20;;;;;;;11.06;71.74;100897.59;4986967;28;20485;-86
2023/11/02 02:20:03;;;;;;;0.20;0.20;;;;;;;11.18;71.94;100907.38;4970713;28;20023;-88
2023/11/02 02:22:33;;;;;;;0.10;0.10;;;;;;;11.25;71.61;100917.44;4970948;28;20031;-87
2023/11/02 02:25:16;;;;;;;0.10;0.10;;;;;;;11.20;72.46;100926.25;4970957;28;20031;-86
2023/11/02 02:28:11;;;;;;;0.20;0.20;;;;;;;11.23;72.51;100924.47;4970586;28;20023;-86
2023/11/02 02:30:52;;;;;;;0.20;0.20;;;;;;;11.29;72.66;100913.78;4970978;28;20473;-88
2023/11/02 02:33:27;;;;;;;0.10;0.10;;;;;;;11.30;72.23;100916.31;4970779;28;20452;-87
2023/11/02 02:36:07;;;;;;;0.10;0.10;;;;;;;11.18;72.54;100907.38;4972280;28;20046;-86
2023/11/02 02:38:54;;;;;;;0.10;0.10;;;;;;;11.34;71.78;100929.97;4970608;28;20114;-86
2023/11/02 02:41:21;;;;;;;0.20;0.20;;;;;;;11.27;71.84;100942.34;4970575;28;20069;-87
2023/11/02 02:43:50;;;;;;;0.10;0.10;;;;;;;11.17;72.14;100922.97;4970827;28;20126;-88
2023/11/02 02:46:17;;;;;;;0.10;0.10;;;;;;;11.24;71.89;100916.63;4955112;28;20034;-86
2023/11/02 02:48:42;;;;;;;0.10;0.10;;;;;;;11.30;72.07;100933.59;4970535;28;20033;-87
2023/11/02 02:51:08;;;;;;;0.10;0.10;;;;;;;11.39;71.70;100934.00;4970744;28;20027;-86
2023/11/02 02:53:34;;;;;;;0.20;0.20;;;;;;;11.39;71.42;100935.75;4954393;28;20031;-86
2023/11/02 02:56:06;;;;;;;0.10;0.10;;;;;;;11.45;70.82;100938.06;4954443;28;20120;-86
2023/11/02 02:58:53;;;;;;;0.10;0.10;;;;;;;11.32;70.66;100939.56;4954695;28;20019;-87
2023/11/02 03:01:19;;;;;;;0.20;0.20;;;;;;;11.20;71.01;100926.25;4954583;28;20037;-86
2023/11/02 03:03:45;;;;;;;0.20;0.20;;;;;;;11.31;71.31;100937.91;4970561;28;20035;-88
2023/11/02 03:06:11;;;;;;;0.10;0.10;;;;;;;11.30;70.83;100938.78;4954299;28;20037;-86
2023/11/02 03:08:38;;;;;;;0.20;0.20;;;;;;;11.24;70.99;100926.97;4970494;28;20121;-85
2023/11/02 03:11:03;;;;;;;0.10;0.10;;;;;;;11.06;71.37;100918.31;4970391;28;20045;-87
2023/11/02 03:13:29;;;;;;;0.20;0.20;;;;;;;11.24;70.77;100931.31;4970303;28;20030;-86
2023/11/02 03:15:55;;;;;;;0.10;0.10;;;;;;;11.27;70.62;100939.78;4984105;28;20050;-86
2023/11/02 03:18:20;;;;;;;0.10;0.10;;;;;;;11.27;70.21;100920.81;4986951;28;20034;-86
2023/11/02 03:20:46;;;;;;;0.10;0.10;;;;;;;11.14;70.20;100889.47;4986889;28;20035;-87
2023/11/02 03:23:14;;;;;;;0.10;0.10;;;;;;;11.36;70.19;100930.72;4986553;28;20078;-87
2023/11/02 03:25:58;;;;;;;0.20;0.20;;;;;;;11.31;69.64;100922.34;4986450;28;20034;-87
2023/11/02 03:28:32;;;;;;;0.20;0.20;;;;;;;11.19;70.00;100924.59;4984866;28;20022;-87
2023/11/02 03:31:30;;;;;;;0.15;0.15;;;;;;;11.36;70.02;100935.91;4987138;28;20411;-87
2023/11/02 03:34:08;;;;;;;0.15;0.15;;;;;;;11.41;70.14;100941.72;4988434;28;20046;-87
2023/11/02 03:36:47;;;;;;;0.20;0.20;;;;;;;11.24;71.03;100939.09;4990185;28;20121;-87
2023/11/02 03:39:33;;;;;;;0.20;0.20;;;;;;;11.26;71.20;100937.25;4975247;28;20488;-88
2023/11/02 03:42:13;;;;;;;0.10;0.10;;;;;;;11.26;71.46;100932.06;4990184;28;20058;-86
2023/11/02 03:44:44;;;;;;;0.20;0.20;;;;;;;11.32;71.32;100913.66;4990071;28;20499;-87
2023/11/02 03:47:34;;;;;;;0.10;0.10;;;;;;;11.02;71.91;100880.53;4990156;28;20027;-87
2023/11/02 03:50:11;;;;;;;0.10;0.10;;;;;;;11.39;71.68;100921.06;4989025;28;20046;-86
2023/11/02 03:52:47;;;;;;;0.15;0.15;;;;;;;11.32;71.93;100914.50;4989854;28;20027;-87
2023/11/02 03:55:30;;;;;;;0.20;0.20;;;;;;;11.41;72.20;100928.78;4990051;28;20031;-87
2023/11/02 03:58:02;;;;;;;0.10;0.10;;;;;;;11.39;71.97;100913.28;4974891;28;20023;-87
2023/11/02 04:00:28;;;;;;;0.20;0.20;;;;;;;11.36;72.40;100902.25;4989857;28;20034;-87
2023/11/02 04:02:59;;;;;;;0.20;0.20;;;;;;;11.29;72.14;100898.25;4973467;28;20266;-87
2023/11/02 04:05:26;;;;;;;0.20;0.20;;;;;;;11.30;72.17;100923.25;4973394;28;20496;-87
2023/11/02 04:08:02;;;;;;;0.13;0.13;;;;;;;11.43;72.28;100940.75;4973750;28;20529;-85
2023/11/02 04:10:31;;;;;;;0.20;0.20;;;;;;;11.26;72.41;100924.31;4989943;28;20122;-85
2023/11/02 04:13:12;;;;;;;0.10;0.10;;;;;;;11.39;72.43;100939.19;4973707;28;20033;-85
2023/11/02 04:15:38;;;;;;;0.20;0.20;;;;;;;11.34;72.88;100943.75;4988623;28;20054;-85
2023/11/02 04:18:03;;;;;;;0.20;0.20;;;;;;;11.31;72.87;100948.25;4973263;28;20415;-85
2023/11/02 04:20:28;;;;;;;0.10;0.10;;;;;;;11.26;72.74;100939.84;4973278;28;20437;-85
2023/11/02 04:22:54;;;;;;;0.20;0.20;;;;;;;11.43;72.75;100963.22;4974719;28;20108;-85
2023/11/02 04:25:19;;;;;;;0.10;0.10;;;;;;;11.44;72.73;100972.66;4973008;28;20026;-85
2023/11/02 04:27:45;;;;;;;0.10;0.10;;;;;;;11.53;72.77;100967.06;4972739;28;20038;-85
2023/11/02 04:30:11;;;;;;;0.10;0.10;;;;;;;11.58;72.61;100974.59;4988912;28;20026;-85
2023/11/02 04:32:37;;;;;;;0.10;0.10;;;;;;;11.52;72.22;100973.16;4989320;28;20114;-85
2023/11/02 04:35:03;;;;;;;0.20;0.20;;;;;;;11.43;72.27;100969.22;4989241;28;20026;-85
2023/11/02 04:37:29;;;;;;;0.20;0.20;;;;;;;11.31;72.84;100962.03;4988916;28;20125;-85
2023/11/02 04:39:54;;;;;;;0.20;0.20;;;;;;;11.47;72.89;100985.47;4972988;28;20034;-85
2023/11/02 04:42:21;;;;;;;0.20;0.20;;;;;;;11.44;72.92;100981.28;4971455;28;20027;-85
2023/11/02 04:44:46;;;;;;;0.10;0.10;;;;;;;11.61;72.32;100971.88;4988564;28;20030;-86
2023/11/02 04:47:12;;;;;;;0.17;0.17;;;;;;;11.73;71.96;100966.94;4988947;28;20034;-86
2023/11/02 04:49:37;;;;;;;0.10;0.10;;;;;;;11.62;71.93;100938.09;4988750;28;20061;-85
2023/11/02 04:52:04;;;;;;;0.20;0.20;;;;;;;11.92;71.49;100961.72;4968692;28;20106;-85
2023/11/02 04:54:30;;;;;;;0.10;0.10;;;;;;;11.90;71.34;100955.78;5008230;28;20048;-85
2023/11/02 04:56:55;;;;;;;0.20;0.20;;;;;;;11.71;71.42;100937.66;5007983;28;20416;-87
2023/11/02 04:59:21;;;;;;;0.10;0.10;;;;;;;11.65;72.50;100931.94;5007798;28;20031;-85
2023/11/02 05:01:49;;;;;;;0.15;0.15;;;;;;;11.69;73.17;100965.38;4992615;28;20393;-84
2023/11/02 05:04:15;;;;;;;0.20;0.20;;;;;;;11.67;73.82;100951.66;5007966;28;20508;-84
2023/11/02 05:06:41;;;;;;;0.20;0.20;;;;;;;11.63;75.41;100938.94;5007995;28;20033;-85
2023/11/02 05:09:06;;;;;;;0.10;0.10;;;;;;;11.72;76.37;100965.25;5007979;28;20031;-86
2023/11/02 05:11:32;;;;;;;0.20;0.20;;;;;;;11.65;76.56;100956.09;4991263;28;20030;-86
2023/11/02 05:13:57;;;;;;;0.10;0.10;;;;;;;11.56;76.95;100953.94;5007028;28;20417;-85
2023/11/02 05:16:23;;;;;;;0.20;0.20;;;;;;;11.62;77.10;100956.25;4990633;28;20030;-86
2023/11/02 05:18:48;;;;;;;0.20;0.20;;;;;;;11.54;77.42;100950.59;5007081;28;20033;-86
2023/11/02 05:21:14;;;;;;;0.10;0.10;;;;;;;11.55;77.83;100949.66;4990273;28;20041;-90
2023/11/02 05:23:39;;;;;;;0.10;0.10;;;;;;;11.54;76.67;100942.81;4973444;28;20038;-88
2023/11/02 05:26:05;;;;;;;0.20;0.20;;;;;;;11.40;77.43;100947.78;4977914;28;20042;-90
2023/11/02 05:28:33;;;;;;;0.20;0.20;;;;;;;11.48;78.00;100953.47;5009440;28;20022;-93
2023/11/02 05:30:59;;;;;;;0.10;0.10;;;;;;;11.31;78.43;100949.09;4991521;28;20125;-89
2023/11/02 05:33:24;;;;;;;0.20;0.20;;;;;;;11.30;78.15;100946.53;5007558;28;20487;-91
2023/11/02 05:35:50;;;;;;;0.10;0.10;;;;;;;11.31;77.96;100940.47;5005895;28;20031;-90
2023/11/02 05:38:16;;;;;;;0.20;0.20;;;;;;;11.34;77.89;100937.75;4985594;28;20031;-91
2023/11/02 05:40:45;;;;;;;0.10;0.10;;;;;;;11.25;78.50;100926.06;4989404;28;20045;-88
2023/11/02 05:43:10;;;;;;;0.20;0.20;;;;;;;11.29;78.58;100950.88;4972783;28;20031;-92
2023/11/02 05:45:36;;;;;;;0.20;0.20;;;;;;;11.33;77.90;100946.44;4987645;28;20038;-93
2023/11/02 05:48:01;;;;;;;0.10;0.10;;;;;;;11.25;79.62;100943.34;4991200;28;20457;-92
2023/11/02 05:50:27;;;;;;;0.10;0.10;;;;;;;11.29;78.96;100939.69;5006599;28;20030;-89
2023/11/02 05:52:53;;;;;;;0.20;0.20;;;;;;;11.32;78.73;100947.34;4990480;28;20491;-88
2023/11/02 05:55:18;;;;;;;0.10;0.10;;;;;;;11.47;78.11;100956.97;4982067;28;20038;-85
2023/11/02 05:57:44;;;;;;;0.10;0.10;;;;;;;11.47;77.83;100951.78;5000090;28;20049;-89
2023/11/02 06:00:10;;;;;;;0.20;0.20;;;;;;;11.37;79.09;100959.16;4996220;28;20413;-88
2023/11/02 06:02:37;;;;;;;0.10;0.10;;;;;;;11.40;79.63;100953.81;4988136;28;20035;-89
2023/11/02 06:05:04;;;;;;;0.20;0.20;;;;;;;11.44;80.06;100962.31;4961461;28;20030;-89
2023/11/02 06:07:30;;;;;;;0.10;0.10;;;;;;;11.44;78.97;100963.13;4990793;28;20054;-89
2023/11/02 06:09:56;;;;;;;0.20;0.20;;;;;;;11.47;78.87;100964.75;4992228;28;20037;-87
2023/11/02 06:12:23;;;;;;;0.20;0.20;;;;;;;11.68;80.57;100958.53;4985974;28;20031;-93
2023/11/02 06:14:49;;;;;;;0.20;0.20;;;;;;;11.64;79.27;100959.59;4997991;28;20058;-90
2023/11/02 06:17:15;;;;;;;0.20;0.20;;;;;;;11.63;79.67;100957.94;4986084;28;20074;-92
2023/11/02 06:19:41;;;;;;;0.15;0.15;;;;;;;11.60;79.26;100955.50;5007336;28;20484;-90
2023/11/02 06:22:06;;;;;;;0.10;0.10;;;;;;;11.52;78.85;100939.47;5006153;28;20038;-90
2023/11/02 06:24:32;;;;;;;0.20;0.20;;;;;;;11.61;78.88;100962.34;4994933;28;20045;-92
2023/11/02 06:26:57;;;;;;;0.10;0.10;;;;;;;11.59;78.24;100950.34;4957196;28;20034;-85
2023/11/02 06:29:23;;;;;;;0.20;0.20;;;;;;;11.47;78.45;100949.19;4975289;28;20031;-86
2023/11/02 06:31:48;;;;;;;0.10;0.10;;;;;;;11.62;79.31;100983.91;4981617;28;20027;-87
2023/11/02 06:34:16;;;;;;;0.20;0.20;;;;;;;11.59;77.85;100979.69;4990598;28;20042;-88
2023/11/02 06:36:42;;;;;;;0.10;0.10;;;;;;;11.60;77.88;100996.09;5001899;28;20034;-91
2023/11/02 06:39:07;;;;;;;0.20;0.20;;;;;;;11.58;78.22;100993.56;5005381;28;20022;-90
2023/11/02 06:41:33;;;;;;;0.10;0.10;;;;;;;11.53;77.48;100998.16;5006442;28;20034;-92
2023/11/02 06:43:58;;;;;;;0.20;0.20;;;;;;;11.56;77.58;101005.75;4991092;28;20030;-91
2023/11/02 06:46:24;;;;;;;0.10;0.10;;;;;;;11.57;77.82;100991.88;5009664;28;20025;-93
2023/11/02 06:48:49;;;;;;;0.20;0.20;;;;;;;11.51;77.84;100991.38;5007652;28;20037;-89
2023/11/02 06:51:15;;;;;;;0.20;0.20;;;;;;;11.47;77.34;100975.94;5004264;28;20515;-89
2023/11/02 06:53:40;;;;;;;0.20;0.20;;;;;;;11.60;77.71;100996.09;4984711;28;20404;-92
2023/11/02 06:56:06;;;;;;;0.20;0.20;;;;;;;11.59;76.73;100984.88;4977355;28;20058;-94
2023/11/02 06:58:31;;;;;;;0.10;0.10;;;;;;;11.65;76.17;100994.97;5012102;28;20026;-94
2023/11/02 07:00:58;;;;;;;0.20;0.20;;;;;;;11.55;77.08;100995.47;4994493;28;20030;-93
2023/11/02 07:03:24;;;;;;;0.20;0.20;;;;;;;11.46;77.83;100981.19;5009821;28;20024;-88
2023/11/02 07:05:49;;;;;;;0.20;0.20;;;;;;;11.59;78.48;100984.88;5008624;28;20033;-93
2023/11/02 07:08:15;;;;;;;0.20;0.20;;;;;;;11.60;78.38;100981.41;4983903;28;20500;-89
2023/11/02 07:10:40;;;;;;;0.20;0.20;;;;;;;11.72;78.28;100988.59;4979587;28;20411;-92
2023/11/02 07:13:07;;;;;;;0.20;0.20;;;;;;;11.66;77.02;100982.84;4985049;28;20031;-90
2023/11/02 07:15:33;;;;;;;0.10;0.10;;;;;;;11.70;76.89;100974.00;4948765;28;1628108;-88
2023/11/02 07:17:58;;;;;;;0.15;0.15;;;;;;;11.79;76.91;100968.38;4987797;28;20038;-93
2023/11/02 07:20:24;;;;;;;0.20;0.20;;;;;;;11.86;75.55;100977.56;5005700;28;20346;-94
2023/11/02 07:22:49;;;;;;;0.20;0.20;;;;;;;11.91;75.03;100978.19;4991209;28;20057;-92
2023/11/02 07:25:15;;;;;;;0.20;0.20;;;;;;;11.97;75.35;100974.44;5009351;28;20097;-93
2023/11/02 07:27:40;;;;;;;0.10;0.10;;;;;;;12.14;76.05;100982.25;4992895;28;20042;-89
2023/11/02 07:30:06;;;;;;;0.20;0.20;;;;;;;12.24;75.42;100975.69;4992266;28;20106;-86
2023/11/02 07:32:32;;;;;;;0.20;0.20;;;;;;;12.18;73.69;100957.81;4984685;28;20124;-86
2023/11/02 07:34:57;;;;;;;0.20;0.20;;;;;;;12.23;73.74;100960.19;5009113;28;20488;-83
2023/11/02 07:37:23;;;;;;;0.20;0.20;;;;;;;12.25;73.13;100974.75;4991975;28;20022;-82
2023/11/02 07:39:48;;;;;;;0.20;0.20;;;;;;;12.42;73.03;100970.50;5008934;28;20045;-83
2023/11/02 07:42:14;;;;;;;0.20;0.20;;;;;;;12.32;70.31;100947.59;5008589;28;20037;-84
2023/11/02 07:44:39;;;;;;;0.20;0.20;;;;;;;12.41;71.86;100966.22;4992886;28;20038;-85
2023/11/02 07:47:05;;;;;;;0.20;0.20;;;;;;;12.34;71.54;100961.34;4982177;28;20531;-89
2023/11/02 07:49:31;;;;;;;0.20;0.20;;;;;;;12.45;70.47;100970.31;4976721;28;20050;-90
2023/11/02 07:51:56;;;;;;;0.20;0.20;;;;;;;12.46;69.84;100975.44;5004114;28;20771;-88
2023/11/02 07:54:22;;;;;;;0.20;0.20;;;;;;;12.48;70.93;100971.00;4962314;28;20045;-84
2023/11/02 07:56:47;;;;;;;0.20;0.20;;;;;;;12.99;71.00;100965.78;4988666;28;20022;-88
2023/11/02 07:59:13;;;;;;;0.10;0.10;;;;;;;13.58;69.94;100982.50;4975843;28;20053;-83
2023/11/02 08:01:38;;;;;;;0.10;0.10;;;;;;;14.47;64.07;100983.44;4969292;28;20109;-83
2023/11/02 08:04:04;;;;;;;0.20;0.20;;;;;;;14.49;61.00;100987.63;4998552;28;20054;-84
2023/11/02 08:06:32;;;;;;;0.10;0.10;;;;;;;14.01;60.87;100989.53;4976118;28;20027;-86
2023/11/02 08:08:57;;;;;;;0.20;0.20;;;;;;;13.83;63.57;100995.78;4994165;28;20041;-92
2023/11/02 08:11:23;;;;;;;0.15;0.15;;;;;;;13.72;62.33;100992.94;4995768;28;20035;-87
2023/11/02 08:13:51;;;;;;;0.20;0.20;;;;;;;13.58;64.62;100985.09;4991504;28;20042;-93
2023/11/02 08:16:22;;;;;;;0.10;0.10;;;;;;;13.65;65.94;100981.22;5011554;28;20041;-90
2023/11/02 08:18:47;;;;;;;0.10;0.10;;;;;;;13.54;63.89;100962.78;4990046;28;20122;-86
2023/11/02 08:21:13;;;;;;;0.20;0.20;;;;;;;13.55;65.31;100954.06;4977437;28;20034;-91
2023/11/02 08:23:38;;;;;;;0.20;0.20;;;;;;;13.63;63.70;100962.25;5002859;28;20058;-90
2023/11/02 08:26:04;;;;;;;0.20;0.20;;;;;;;13.33;63.13;100957.00;5005534;28;20033;-91
2023/11/02 08:28:30;;;;;;;0.20;0.20;;;;;;;13.43;63.34;100956.41;5003639;28;20061;-94
2023/11/02 08:30:56;;;;;;;0.20;0.20;;;;;;;13.20;64.74;100946.47;4979060;28;20030;-87
2023/11/02 08:33:21;;;;;;;0.10;0.10;;;;;;;13.11;64.25;100934.78;5006587;28;20035;-89
2023/11/02 08:35:51;;;;;;;0.20;0.20;;;;;;;13.19;64.18;100945.63;5010014;28;20077;-94
2023/11/02 08:38:17;;;;;;;0.10;0.10;;;;;;;13.31;64.98;100945.88;4991667;28;20045;-87
2023/11/02 08:40:42;;;;;;;0.10;0.10;;;;;;;13.26;64.07;100933.13;5008780;28;20026;-90
2023/11/02 08:43:08;;;;;;;0.20;0.20;;;;;;;13.64;63.97;100935.34;5006096;28;20535;-88
2023/11/02 08:45:33;;;;;;;0.10;0.10;;;;;;;13.50;63.63;100946.53;4989427;28;20085;-91
2023/11/02 08:47:59;;;;;;;0.10;0.10;;;;;;;13.48;63.36;100954.41;5006855;28;20039;-92
2023/11/02 08:50:25;;;;;;;0.20;0.20;;;;;;;13.57;65.56;100963.47;4979180;28;20384;-90
2023/11/02 08:52:53;;;;;;;0.10;0.10;;;;;;;13.49;63.26;100960.44;5008847;28;20042;-94
2023/11/02 08:55:20;;;;;;;0.10;0.10;;;;;;;13.44;63.88;100937.28;5004539;28;20007;-94
2023/11/02 08:57:52;;;;;;;0.10;0.10;;;;;;;13.54;67.10;100941.97;5002096;28;20039;-94
2023/11/02 09:00:19;;;;;;;0.20;0.20;;;;;;;13.76;63.42;100955.44;5015772;28;20038;-91
2023/11/02 09:02:45;;;;;;;0.20;0.20;;;;;;;13.76;63.10;100947.63;4994498;28;20060;-94
2023/11/02 09:05:10;;;;;;;0.10;0.10;;;;;;;13.80;62.82;100954.34;4995432;28;20133;-92
2023/11/02 09:07:36;;;;;;;0.20;0.20;;;;;;;13.98;63.78;100948.09;5006085;28;20045;-91
2023/11/02 09:10:03;;;;;;;0.10;0.10;;;;;;;13.91;61.82;100941.56;4989671;28;20085;-87
2023/11/02 09:12:28;;;;;;;0.13;0.13;;;;;;;13.92;62.01;100945.84;4995935;28;20061;-92
2023/11/02 09:15:17;;;;;;;0.20;0.20;;;;;;;13.71;62.03;100918.47;4976483;28;20053;-93
2023/11/02 09:17:44;;;;;;;0.20;0.20;;;;;;;13.74;61.35;100929.53;4977186;28;20050;-89
2023/11/02 09:20:13;;;;;;;0.20;0.20;;;;;;;13.77;63.03;100912.94;5012603;28;20018;-91
2023/11/02 09:22:39;;;;;;;0.20;0.20;;;;;;;13.92;62.05;100906.00;4994566;28;20046;-92
2023/11/02 09:25:06;;;;;;;0.10;0.10;;;;;;;13.92;61.81;100896.44;4980195;28;20037;-92
2023/11/02 09:27:31;;;;;;;0.10;0.10;;;;;;;14.00;60.51;100885.56;5001258;28;20030;-83
2023/11/02 09:29:57;;;;;;;0.10;0.10;;;;;;;13.94;61.94;100885.94;5003101;28;20111;-93
2023/11/02 09:32:24;;;;;;;0.20;0.20;;;;;;;14.05;61.32;100889.56;5013298;28;20081;-91
2023/11/02 09:34:49;;;;;;;0.20;0.20;;;;;;;14.09;60.96;100873.78;4977189;28;20034;-92
2023/11/02 09:37:15;;;;;;;0.10;0.10;;;;;;;14.16;60.84;100877.69;4994869;28;20026;-93
2023/11/02 09:39:41;;;;;;;0.20;0.20;;;;;;;14.16;61.10;100869.88;4993855;22;20058;-91
2023/11/02 09:42:06;;;;;;;0.15;0.15;;;;;;;14.20;60.59;100876.59;4940984;28;20026;-92
2023/11/02 09:44:32;;;;;;;0.20;0.20;;;;;;;14.25;60.21;100875.38;4960888;28;20034;-95
2023/11/02 09:46:58;;;;;;;0.10;0.10;;;;;;;14.15;60.37;100847.41;4977234;28;20023;-86
2023/11/02 09:49:23;;;;;;;0.20;0.20;;;;;;;14.28;60.59;100869.16;4991918;28;20030;-92
2023/11/02 09:51:48;;;;;;;0.20;0.20;;;;;;;14.31;59.23;100853.34;4974052;28;20053;-86
2023/11/02 09:54:14;;;;;;;0.10;0.10;;;;;;;14.37;59.46;100855.59;4958653;28;20503;-85
2023/11/02 09:56:40;;;;;;;0.20;0.20;;;;;;;14.45;59.94;100853.38;4981180;28;20132;-89
2023/11/02 09:59:06;;;;;;;0.15;0.15;;;;;;;14.48;59.88;100840.19;4942369;28;20038;-92
2023/11/02 10:01:32;;;;;;;0.10;0.10;;;;;;;14.46;59.00;100830.81;4926538;28;20058;-90
2023/11/02 10:03:57;;;;;;;0.10;0.10;;;;;;;14.39;59.31;100812.09;4989214;28;20065;-90
2023/11/02 10:06:23;;;;;;;0.20;0.20;;;;;;;14.51;57.99;100810.50;4973172;28;20037;-87
2023/11/02 10:08:49;;;;;;;0.10;0.10;;;;;;;14.59;59.32;100832.53;4967163;28;20034;-92
2023/11/02 10:11:15;;;;;;;0.20;0.20;;;;;;;14.52;61.28;100807.81;4937252;28;20023;-87
2023/11/02 10:13:44;;;;;;;0.20;0.20;;;;;;;14.71;61.84;100811.88;4956767;28;20022;-90
2023/11/02 10:16:09;;;;;;;0.10;0.10;;;;;;;15.31;64.08;100838.34;4973637;28;20027;-93
2023/11/02 10:18:35;;;;;;;0.13;0.13;;;;;;;15.28;59.02;100840.34;4979858;28;20045;-88
2023/11/02 10:21:05;;;;;;;0.10;0.10;;;;;;;15.10;57.70;100819.75;4969912;28;20041;-94
2023/11/02 10:23:51;;;;;;;0.20;0.20;;;;;;;14.97;58.40;100844.09;4954088;28;20027;-91
2023/11/02 10:26:17;;;;;;;0.20;0.20;;;;;;;14.72;58.94;100834.38;4940590;28;20131;-90
2023/11/02 10:28:43;;;;;;;0.10;0.10;;;;;;;14.65;58.70;100839.16;4960721;28;20026;-91
2023/11/02 10:31:09;;;;;;;0.10;0.10;;;;;;;14.79;59.38;100835.66;4973371;28;20188;-93
2023/11/02 10:33:36;;;;;;;0.13;0.13;;;;;;;14.79;60.03;100831.28;4961850;28;20045;-94
2023/11/02 10:36:02;;;;;;;0.10;0.10;;;;;;;14.77;58.04;100838.38;4972085;28;20044;-91
2023/11/02 10:38:27;;;;;;;0.10;0.10;;;;;;;14.77;59.36;100829.72;4963616;28;20056;-92
2023/11/02 10:40:53;;;;;;;0.20;0.20;;;;;;;14.71;59.53;100827.50;4971751;28;20511;-90
2023/11/02 10:43:19;;;;;;;0.10;0.10;;;;;;;14.72;58.75;100829.16;4966421;28;20038;-91
2023/11/02 10:45:47;;;;;;;0.10;0.10;;;;;;;14.70;58.48;100820.63;4973170;28;20504;-89
2023/11/02 10:48:17;;;;;;;0.10;0.10;;;;;;;14.60;57.61;100813.38;4959368;28;20030;-92
2023/11/02 10:50:43;;;;;;;0.17;0.17;;;;;;;14.60;58.46;100805.56;4974568;28;20105;-88
2023/11/02 10:53:09;;;;;;;0.20;0.20;;;;;;;14.69;58.79;100803.31;4959880;28;20081;-90
2023/11/02 10:55:41;;;;;;;0.20;0.20;;;;;;;14.63;58.42;100763.72;4958747;28;20030;-90
2023/11/02 10:58:06;;;;;;;0.20;0.20;;;;;;;14.86;58.32;100790.06;4973518;28;20030;-92
2023/11/02 11:00:32;;;;;;;0.20;0.20;;;;;;;14.89;58.65;100789.88;4972598;28;20085;-88
2023/11/02 11:02:58;;;;;;;0.10;0.10;;;;;;;14.98;57.79;100793.66;4951319;28;20050;-92
2023/11/02 11:05:23;;;;;;;0.20;0.20;;;;;;;15.11;58.20;100778.88;4991899;28;20034;-89
2023/11/02 11:07:56;;;;;;;0.20;0.20;;;;;;;15.02;57.79;100776.88;4959023;28;20034;-94
2023/11/02 11:10:21;;;;;;;0.17;0.17;;;;;;;15.03;58.02;100773.34;4965721;28;20031;-93
2023/11/02 11:12:47;;;;;;;0.20;0.20;;;;;;;14.86;58.47;100737.97;4993087;28;20509;-87
2023/11/02 11:15:12;;;;;;;0.20;0.20;;;;;;;15.04;57.44;100744.56;4975720;28;20409;-86
2023/11/02 11:17:43;;;;;;;0.10;0.10;;;;;;;15.01;57.55;100730.91;4940554;28;20050;-88
2023/11/02 11:20:09;;;;;;;0.10;0.10;;;;;;;15.04;58.23;100738.53;4939197;28;20031;-91
2023/11/02 11:22:34;;;;;;;0.20;0.20;;;;;;;15.14;58.13;100735.25;4942561;28;20404;-92
2023/11/02 11:25:05;;;;;;;0.13;0.13;;;;;;;15.10;58.40;100728.53;4973682;28;20035;-88
2023/11/02 11:27:31;;;;;;;0.20;0.20;;;;;;;15.16;58.14;100725.53;4958818;28;20043;-92
2023/11/02 11:29:57;;;;;;;0.20;0.20;;;;;;;15.30;58.28;100731.59;4954006;28;20058;-88